30.7°F
Current conditions from King Hill
Updated every 5 minutes
 
  Sunday April 20, 2014

Station Historical Data
Daily Summary for March 25, 2012 Units:  Metric    English   Both
« Previous Day
Next Day »
Daily Weekly Monthly Yearly Custom
  High: Low: Average:
Temperature: 7.3 °C 4.4 °C 6.1 °C
Dew Point: 4.6 °C -0.4 °C 3.1 °C
Humidity: 91% 64% 81%
Wind Speed: 17.7km/h 0km/h 8.4km/h
Wind Gust: 35.4km/h - -
Wind- - SSW
Pressure: 1014.1 hPa 1005 hPa -
Precipitation: 0.8 mm    
Historical Graphs
 
 
Tabular Data for March 25, 2012
Time Temperature Dew Point Pressure Wind Wind Speed Wind Gust Humidity Daily Rainfall
00:05 4.5 °C 1 °C 1014.1 hPa Calm     78% 0 mm
00:10 4.6 °C 1.1 °C 1014.1 hPa Calm     78% 0 mm
00:15 4.6 °C 1.1 °C 1014.1 hPa Calm     78% 0 mm
00:19 4.6 °C 1.1 °C 1014.1 hPa Calm     78% 0 mm
00:24 4.6 °C 1.1 °C 1014.1 hPa Calm     78% 0 mm
00:30 4.6 °C 1.1 °C 1014.1 hPa Calm     78% 0 mm
00:34 4.6 °C 1.1 °C 1014.1 hPa Calm     78% 0 mm
00:40 4.6 °C 1.1 °C 1014.1 hPa Calm   4.8 km/h 78% 0 mm
00:45 4.6 °C 1.1 °C 1014.1 hPa Calm   4.8 km/h 78% 0 mm
00:49 4.5 °C 0.8 °C 1014.1 hPa SSW 3.2 km/h 6.4 km/h 77% 0 mm
00:55 4.4 °C 0.8 °C 1013.8 hPa SSW 1.6 km/h 6.4 km/h 77% 0 mm
00:59 4.4 °C 0.8 °C 1013.8 hPa SSW 1.6 km/h 6.4 km/h 77% 0 mm
01:05 4.5 °C 0.8 °C 1013.8 hPa Calm   6.4 km/h 77% 0 mm
01:09 4.5 °C 0.8 °C 1013.8 hPa SSW 3.2 km/h 11.3 km/h 77% 0 mm
01:15 4.6 °C 0.7 °C 1013.8 hPa SSW 3.2 km/h 11.3 km/h 76% 0 mm
01:19 4.6 °C 0.7 °C 1013.8 hPa Calm   9.7 km/h 76% 0 mm
01:25 4.7 °C 0.8 °C 1013.8 hPa SSW 1.6 km/h 8 km/h 76% 0 mm
01:30 4.7 °C 0.7 °C 1013.8 hPa SSW 3.2 km/h 8 km/h 75% 0 mm
01:35 4.8 °C 0.7 °C 1013.8 hPa SSW 1.6 km/h 6.4 km/h 75% 0 mm
01:39 4.9 °C 0.7 °C 1013.8 hPa Calm   4.8 km/h 74% 0 mm
01:45 5 °C 1.5 °C 1013.8 hPa SSW 3.2 km/h 8 km/h 78% 0 mm
01:50 5.1 °C 0.8 °C 1013.4 hPa SSW 3.2 km/h 8 km/h 74% 0 mm
01:55 5.1 °C 0.7 °C 1013.4 hPa SSW 1.6 km/h 9.7 km/h 73% 0 mm
01:59 5.2 °C 0.3 °C 1013.4 hPa SSW 4.8 km/h 9.7 km/h 71% 0 mm
02:05 5.2 °C 0.4 °C 1013.4 hPa SSW 1.6 km/h 9.7 km/h 71% 0 mm
02:10 5.3 °C 0.4 °C 1013.4 hPa SSW 1.6 km/h 9.7 km/h 71% 0 mm
02:15 5.2 °C 0.6 °C 1013.4 hPa Calm   8 km/h 72% 0 mm
02:20 5.2 °C 0.6 °C 1013.4 hPa SSW 3.2 km/h 9.7 km/h 72% 0 mm
02:25 5.2 °C 0.6 °C 1013.1 hPa SSW 6.4 km/h 11.3 km/h 72% 0 mm
02:30 5.2 °C 0.4 °C 1013.1 hPa SW 3.2 km/h 11.3 km/h 71% 0 mm
02:35 5.3 °C 0.3 °C 1013.1 hPa SW 1.6 km/h 8 km/h 70% 0 mm
02:40 5.3 °C 0.1 °C 1013.1 hPa SW 4.8 km/h 9.7 km/h 69% 0 mm
02:45 5.5 °C -0.3 °C 1012.8 hPa SSW 9.7 km/h 14.5 km/h 66% 0 mm
02:50 5.7 °C -0.3 °C 1012.8 hPa SSW 4.8 km/h 14.5 km/h 65% 0 mm
03:00 5.8 °C -0.4 °C 1012.8 hPa SSW 3.2 km/h 12.9 km/h 64% 0 mm
03:05 5.8 °C -0.4 °C 1012.8 hPa Calm   11.3 km/h 64% 0 mm
03:10 5.8 °C -0.3 °C 1012.4 hPa SSW 1.6 km/h 9.7 km/h 65% 0 mm
03:14 5.8 °C -0.2 °C 1012.4 hPa SSW 4.8 km/h 11.3 km/h 65% 0 mm
03:20 5.9 °C -0.1 °C 1012.4 hPa Calm   11.3 km/h 65% 0 mm
03:30 6.2 °C 0.1 °C 1012.4 hPa SSW 4.8 km/h 9.7 km/h 65% 0 mm
03:34 6.3 °C -0.1 °C 1012.1 hPa South 3.2 km/h 12.9 km/h 64% 0 mm
03:40 6.3 °C 0.2 °C 1012.1 hPa SSW 3.2 km/h 12.9 km/h 65% 0 mm
03:45 6.5 °C 0.2 °C 1011.7 hPa SSW 6.4 km/h 11.3 km/h 64% 0 mm
03:50 6.6 °C 0.2 °C 1011.7 hPa SSW 4.8 km/h 9.7 km/h 64% 0 mm
03:54 6.6 °C 0.4 °C 1011.4 hPa South 4.8 km/h 11.3 km/h 65% 0 mm
03:59 6.6 °C 0.4 °C 1011.4 hPa Calm   11.3 km/h 65% 0 mm
04:05 6.4 °C 0.6 °C 1011.4 hPa SSW 3.2 km/h 11.3 km/h 66% 0 mm
04:09 6.3 °C 0.4 °C 1011.4 hPa SSW 4.8 km/h 11.3 km/h 66% 0 mm
04:14 6.3 °C 0.6 °C 1011.4 hPa SSW 3.2 km/h 11.3 km/h 67% 0 mm
04:20 6.3 °C 0.8 °C 1011.1 hPa SSW 4.8 km/h 11.3 km/h 68% 0 mm
04:30 6.5 °C 1 °C 1011.1 hPa South 4.8 km/h 14.5 km/h 68% 0 mm
04:35 6.7 °C 1.2 °C 1011.1 hPa SSW 9.7 km/h 17.7 km/h 68% 0 mm
04:40 6.8 °C 1.1 °C 1011.1 hPa SSW 8 km/h 17.7 km/h 67% 0 mm
04:50 6.8 °C 1.3 °C 1010.7 hPa SSW 9.7 km/h 19.3 km/h 68% 0 mm
05:00 6.7 °C 1.4 °C 1010.7 hPa SSW 8 km/h 17.7 km/h 69% 0 mm
05:04 6.7 °C 1.6 °C 1010.7 hPa SSW 9.7 km/h 20.9 km/h 70% 0 mm
05:09 6.6 °C 1.7 °C 1010.7 hPa SSW 12.9 km/h 20.9 km/h 71% 0 mm
05:15 6.5 °C 1.8 °C 1010.7 hPa SSW 17.7 km/h 27.4 km/h 72% 0 mm
05:19 6.4 °C 1.8 °C 1010.7 hPa SSW 9.7 km/h 27.4 km/h 72% 0 mm
05:24 6.4 °C 1.9 °C 1010.7 hPa SSW 12.9 km/h 24.1 km/h 73% 0 mm
05:29 6.4 °C 1.9 °C 1010.7 hPa SSW 11.3 km/h 24.1 km/h 73% 0 mm
05:34 6.4 °C 2.2 °C 1010.4 hPa SSW 12.9 km/h 24.1 km/h 74% 0 mm
05:40 6.4 °C 2.1 °C 1010.4 hPa SSW 9.7 km/h 24.1 km/h 74% 0 mm
05:44 6.3 °C 2.1 °C 1010.4 hPa SSW 8 km/h 17.7 km/h 74% 0 mm
05:50 6.3 °C 2 °C 1010.4 hPa SSW 9.7 km/h 20.9 km/h 74% 0 mm
05:55 6.2 °C 2.1 °C 1010.4 hPa SSW 11.3 km/h 20.9 km/h 75% 0 mm
06:04 6.2 °C 2.1 °C 1010.4 hPa SSW 12.9 km/h 20.9 km/h 75% 0 mm
06:10 6.1 °C 2.2 °C 1010.4 hPa SSW 9.7 km/h 25.7 km/h 76% 0 mm
06:14 6.1 °C 2.2 °C 1010.4 hPa SSW 14.5 km/h 25.7 km/h 76% 0 mm
06:20 6.1 °C 2.3 °C 1010.4 hPa SSW 9.7 km/h 24.1 km/h 77% 0 mm
06:24 6.1 °C 2.3 °C 1010.4 hPa SSW 12.9 km/h 24.1 km/h 77% 0 mm
06:30 6 °C 2.4 °C 1010.4 hPa SSW 9.7 km/h 20.9 km/h 78% 0 mm
06:39 5.8 °C 2.6 °C 1010.4 hPa SSW 12.9 km/h 27.4 km/h 80% 0 mm
06:45 5.7 °C 2.5 °C 1010.4 hPa SSW 12.9 km/h 27.4 km/h 80% 0 mm
06:49 5.6 °C 2.6 °C 1010.4 hPa SW 16.1 km/h 27.4 km/h 81% 0 mm
06:55 5.5 °C 2.5 °C 1010.7 hPa SSW 9.7 km/h 27.4 km/h 81% 0 mm
06:59 5.5 °C 2.7 °C 1010.7 hPa SW 9.7 km/h 29 km/h 82% 0 mm
07:04 5.6 °C 2.7 °C 1010.7 hPa SW 14.5 km/h 29 km/h 82% 0 mm
07:10 5.6 °C 2.7 °C 1010.7 hPa SW 9.7 km/h 25.7 km/h 82% 0 mm
07:14 5.6 °C 2.7 °C 1010.7 hPa SW 11.3 km/h 24.1 km/h 82% 0 mm
07:19 5.6 °C 2.7 °C 1010.7 hPa SW 11.3 km/h 24.1 km/h 82% 0 mm
07:24 5.6 °C 2.7 °C 1010.7 hPa SW 11.3 km/h 22.5 km/h 82% 0 mm
07:29 5.6 °C 2.7 °C 1010.4 hPa SW 12.9 km/h 25.7 km/h 82% 0 mm
07:34 5.5 °C 2.8 °C 1010.4 hPa SSW 11.3 km/h 25.7 km/h 83% 0 mm
07:39 5.4 °C 2.8 °C 1010.4 hPa SSW 11.3 km/h 20.9 km/h 83% 0 mm
07:45 5.4 °C 2.9 °C 1010.4 hPa SSW 11.3 km/h 20.9 km/h 84% 0 mm
07:55 5.3 °C 3.2 °C 1010.7 hPa SSW 9.7 km/h 25.7 km/h 86% 0 mm
08:00 5.3 °C 3.2 °C 1010.7 hPa SW 11.3 km/h 20.9 km/h 86% 0 mm
08:09 5.3 °C 3.3 °C 1010.7 hPa SW 12.9 km/h 20.9 km/h 87% 0.3 mm
08:14 5.3 °C 3.3 °C 1010.7 hPa SSW 6.4 km/h 19.3 km/h 87% 0.3 mm
08:19 5.3 °C 3.3 °C 1010.7 hPa SSW 11.3 km/h 19.3 km/h 87% 0.3 mm
08:24 5.3 °C 3.3 °C 1010.7 hPa SSW 8 km/h 20.9 km/h 87% 0.5 mm
08:29 5.3 °C 3.4 °C 1011.1 hPa SSW 12.9 km/h 22.5 km/h 88% 0.5 mm
08:34 5.2 °C 3.4 °C 1011.1 hPa SSW 8 km/h 22.5 km/h 88% 0.5 mm
08:39 5.2 °C 3.4 °C 1011.1 hPa SSW 11.3 km/h 22.5 km/h 88% 0.5 mm
08:44 5.2 °C 3.6 °C 1011.1 hPa SSW 4.8 km/h 22.5 km/h 89% 0.5 mm
08:50 5.3 °C 3.6 °C 1011.1 hPa SW 6.4 km/h 22.5 km/h 89% 0.5 mm
08:54 5.2 °C 3.6 °C 1011.1 hPa WSW 6.4 km/h 16.1 km/h 89% 0.5 mm
09:00 5.2 °C 3.5 °C 1011.1 hPa SSW 11.3 km/h 20.9 km/h 89% 0.8 mm
09:09 5.2 °C 3.7 °C 1010.7 hPa SW 8 km/h 19.3 km/h 90% 0.8 mm
09:14 5.2 °C 3.7 °C 1010.7 hPa SSW 9.7 km/h 25.7 km/h 90% 0.8 mm
09:19 5.3 °C 3.8 °C 1010.7 hPa SSW 11.3 km/h 25.7 km/h 90% 0.8 mm
09:24 5.3 °C 3.8 °C 1010.4 hPa SW 12.9 km/h 30.6 km/h 90% 0.8 mm
09:29 5.2 °C 3.7 °C 1010.7 hPa SSW 16.1 km/h 30.6 km/h 90% 0.8 mm
09:35 5.2 °C 3.7 °C 1010.4 hPa SSW 9.7 km/h 29 km/h 90% 0.8 mm
09:40 5.2 °C 3.7 °C 1010.4 hPa SSW 12.9 km/h 30.6 km/h 90% 0.8 mm
09:44 5.3 °C 3.8 °C 1010.4 hPa SSW 11.3 km/h 30.6 km/h 90% 0.8 mm
09:49 5.3 °C 3.8 °C 1010.4 hPa SSW 8 km/h 25.7 km/h 90% 0.8 mm
09:54 5.4 °C 3.9 °C 1010.4 hPa SSW 6.4 km/h 24.1 km/h 90% 0.8 mm
09:59 5.4 °C 4.1 °C 1010.4 hPa SW 6.4 km/h 22.5 km/h 91% 0.8 mm
10:04 5.5 °C 4.2 °C 1010 hPa SW 11.3 km/h 25.7 km/h 91% 0.8 mm
10:09 5.6 °C 4.2 °C 1010 hPa SW 14.5 km/h 25.7 km/h 91% 0.8 mm
10:14 5.7 °C 4.3 °C 1010 hPa SSW 11.3 km/h 24.1 km/h 91% 0.8 mm
10:19 5.7 °C 4.2 °C 1010 hPa SSW 12.9 km/h 27.4 km/h 90% 0.8 mm
10:24 5.7 °C 4.2 °C 1010 hPa SSW 12.9 km/h 27.4 km/h 90% 0.8 mm
10:30 5.7 °C 4.2 °C 1010 hPa SSW 14.5 km/h 25.7 km/h 90% 0.8 mm
10:39 5.7 °C 4.2 °C 1010.4 hPa SW 8 km/h 24.1 km/h 90% 0.8 mm
10:45 5.7 °C 4 °C 1010.4 hPa SW 14.5 km/h 24.1 km/h 89% 0.8 mm
10:50 5.7 °C 4 °C 1010.4 hPa SW 12.9 km/h 24.1 km/h 89% 0.8 mm
10:55 5.6 °C 3.9 °C 1010.4 hPa SW 17.7 km/h 27.4 km/h 89% 0.8 mm
11:04 5.6 °C 3.9 °C 1010.4 hPa SSW 14.5 km/h 24.1 km/h 89% 0.8 mm
11:09 5.7 °C 4 °C 1010 hPa SSW 16.1 km/h 29 km/h 89% 0.8 mm
11:14 5.7 °C 4.1 °C 1010 hPa SSW 11.3 km/h 29 km/h 89% 0.8 mm
11:19 5.7 °C 4.1 °C 1009.7 hPa SSW 11.3 km/h 27.4 km/h 89% 0.8 mm
11:24 5.8 °C 4.1 °C 1009.7 hPa SSW 9.7 km/h 27.4 km/h 89% 0.8 mm
11:30 5.8 °C 4.3 °C 1009.7 hPa SW 12.9 km/h 24.1 km/h 90% 0.8 mm
11:35 5.7 °C 4.2 °C 1009.7 hPa SSW 14.5 km/h 25.7 km/h 90% 0.8 mm
11:40 5.6 °C 4.1 °C 1009.7 hPa SSW 12.9 km/h 25.7 km/h 90% 0.8 mm
11:44 5.5 °C 4 °C 1009.7 hPa SW 14.5 km/h 25.7 km/h 90% 0.8 mm
11:50 5.5 °C 3.8 °C 1009.4 hPa SSW 14.5 km/h 29 km/h 89% 0.8 mm
11:55 5.6 °C 4.1 °C 1009.4 hPa SSW 11.3 km/h 29 km/h 90% 0.8 mm
12:05 5.5 °C 3.8 °C 1009.4 hPa SSW 9.7 km/h 19.3 km/h 89% 0.8 mm
12:09 5.6 °C 3.9 °C 1009.4 hPa SSW 16.1 km/h 24.1 km/h 89% 0.8 mm
12:14 5.6 °C 3.9 °C 1009.4 hPa SSW 14.5 km/h 25.7 km/h 89% 0.8 mm
12:19 5.7 °C 4.1 °C 1009.4 hPa SSW 9.7 km/h 25.7 km/h 89% 0.8 mm
12:25 5.9 °C 4.1 °C 1009.4 hPa SSW 11.3 km/h 24.1 km/h 88% 0.8 mm
12:30 5.9 °C 4.1 °C 1009.4 hPa SSW 9.7 km/h 24.1 km/h 88% 0.8 mm
12:34 6 °C 4 °C 1009.4 hPa SSW 8 km/h 30.6 km/h 87% 0.8 mm
12:40 5.9 °C 3.9 °C 1009.4 hPa SSW 12.9 km/h 30.6 km/h 87% 0.8 mm
12:45 6 °C 3.8 °C 1009.4 hPa SSW 12.9 km/h 25.7 km/h 86% 0.8 mm
12:50 6 °C 3.8 °C 1009 hPa SSW 11.3 km/h 25.7 km/h 86% 0.8 mm
13:00 6.2 °C 4 °C 1009 hPa SSW 6.4 km/h 22.5 km/h 86% 0.8 mm
13:05 6.3 °C 4.2 °C 1008.7 hPa SSW 9.7 km/h 25.7 km/h 86% 0.8 mm
13:15 6.3 °C 4 °C 1008.7 hPa SSW 8 km/h 35.4 km/h 85% 0.8 mm
13:19 6.3 °C 3.8 °C 1008.7 hPa SSW 12.9 km/h 32.2 km/h 84% 0.8 mm
13:24 6.3 °C 4 °C 1008.7 hPa SSW 8 km/h 32.2 km/h 85% 0.8 mm
13:29 6.3 °C 3.8 °C 1008.7 hPa SSW 9.7 km/h 20.9 km/h 84% 0.8 mm
13:35 6.4 °C 3.9 °C 1008.7 hPa SSW 14.5 km/h 29 km/h 84% 0.8 mm
13:40 6.4 °C 3.9 °C 1008.4 hPa SSW 12.9 km/h 29 km/h 84% 0.8 mm
13:49 6.5 °C 3.8 °C 1008.4 hPa SSW 12.9 km/h 24.1 km/h 83% 0.8 mm
13:54 6.5 °C 3.8 °C 1008 hPa SSW 14.5 km/h 25.7 km/h 83% 0.8 mm
13:59 6.6 °C 3.9 °C 1008 hPa SSW 8 km/h 25.7 km/h 83% 0.8 mm
14:04 6.6 °C 3.9 °C 1008 hPa South 9.7 km/h 22.5 km/h 83% 0.8 mm
14:09 6.6 °C 3.8 °C 1008 hPa SSW 12.9 km/h 25.7 km/h 82% 0.8 mm
14:14 6.6 °C 3.7 °C 1008 hPa SSW 11.3 km/h 25.7 km/h 82% 0.8 mm
14:20 6.6 °C 3.9 °C 1008 hPa SSW 8 km/h 17.7 km/h 83% 0.8 mm
14:24 6.6 °C 3.9 °C 1007.7 hPa SSW 9.7 km/h 22.5 km/h 83% 0.8 mm
14:29 6.7 °C 4.1 °C 1007.7 hPa SSW 8 km/h 22.5 km/h 83% 0.8 mm
14:34 6.7 °C 3.9 °C 1007.7 hPa SSW 12.9 km/h 20.9 km/h 82% 0.8 mm
14:40 6.7 °C 3.9 °C 1007.7 hPa SSW 11.3 km/h 20.9 km/h 82% 0.8 mm
14:45 6.7 °C 3.8 °C 1007.7 hPa SSW 9.7 km/h 22.5 km/h 82% 0.8 mm
14:54 6.8 °C 4 °C 1007.3 hPa SSW 9.7 km/h 22.5 km/h 82% 0.8 mm
14:59 6.8 °C 4 °C 1007.7 hPa SSW 11.3 km/h 22.5 km/h 82% 0.8 mm
15:05 7 °C 4.3 °C 1007.3 hPa SSW 6.4 km/h 20.9 km/h 83% 0.8 mm
15:09 7 °C 4.1 °C 1007.3 hPa SW 6.4 km/h 17.7 km/h 82% 0.8 mm
15:14 6.9 °C 4.1 °C 1007.3 hPa SW 11.3 km/h 19.3 km/h 82% 0.8 mm
15:19 6.9 °C 4.1 °C 1007.3 hPa SSW 9.7 km/h 19.3 km/h 82% 0.8 mm
15:25 6.9 °C 4.2 °C 1007.3 hPa SSW 9.7 km/h 17.7 km/h 83% 0.8 mm
15:30 6.9 °C 4.3 °C 1007.3 hPa SSW 6.4 km/h 16.1 km/h 83% 0.8 mm
15:40 7 °C 4.1 °C 1007.3 hPa SSW 6.4 km/h 14.5 km/h 82% 0.8 mm
15:45 7.1 °C 4.2 °C 1007.3 hPa SSW 9.7 km/h 14.5 km/h 82% 0.8 mm
15:55 7.3 °C 4.4 °C 1007.3 hPa SSW 8 km/h 17.7 km/h 82% 0.8 mm
16:00 7.2 °C 4.3 °C 1007.3 hPa SSW 8 km/h 16.1 km/h 82% 0.8 mm
16:10 7.2 °C 4.3 °C 1007 hPa SW 8 km/h 19.3 km/h 82% 0.8 mm
16:15 7.2 °C 4.3 °C 1007 hPa SSW 9.7 km/h 14.5 km/h 82% 0.8 mm
16:24 7.3 °C 4.4 °C 1006.7 hPa SSW 6.4 km/h 19.3 km/h 82% 0.8 mm
16:29 7.2 °C 4.2 °C 1006.7 hPa SSW 9.7 km/h 16.1 km/h 81% 0.8 mm
16:34 7.2 °C 4.3 °C 1007 hPa SSW 6.4 km/h 17.7 km/h 82% 0.8 mm
16:40 7.2 °C 4.3 °C 1006.7 hPa SSW 8 km/h 17.7 km/h 82% 0.8 mm
16:45 7.2 °C 4.3 °C 1006.7 hPa SSW 9.7 km/h 16.1 km/h 82% 0.8 mm
16:55 7.2 °C 4.3 °C 1006.7 hPa SW 6.4 km/h 19.3 km/h 82% 0.8 mm
16:59 7.2 °C 4.3 °C 1006.7 hPa SSW 8 km/h 20.9 km/h 82% 0.8 mm
17:04 7.2 °C 4.3 °C 1006.7 hPa SSW 3.2 km/h 20.9 km/h 82% 0.8 mm
17:09 7.2 °C 4.3 °C 1006.7 hPa SSW 9.7 km/h 16.1 km/h 82% 0.8 mm
17:14 7.2 °C 4.3 °C 1006.7 hPa SSW 6.4 km/h 16.1 km/h 82% 0.8 mm
17:20 7.2 °C 4.3 °C 1006.3 hPa SSW 11.3 km/h 19.3 km/h 82% 0.8 mm
17:24 7.2 °C 4.3 °C 1006.3 hPa SSW 9.7 km/h 20.9 km/h 82% 0.8 mm
17:29 7.2 °C 4.3 °C 1006.3 hPa SSW 6.4 km/h 20.9 km/h 82% 0.8 mm
17:34 7.2 °C 4.3 °C 1006.3 hPa SSW 11.3 km/h 17.7 km/h 82% 0.8 mm
17:39 7.2 °C 4.3 °C 1006.3 hPa SSW 8 km/h 17.7 km/h 82% 0.8 mm
17:45 7.2 °C 4.3 °C 1006.3 hPa South 8 km/h 14.5 km/h 82% 0.8 mm
17:54 7.1 °C 4.4 °C 1006.3 hPa SSW 8 km/h 14.5 km/h 83% 0.8 mm
17:59 7.1 °C 4.4 °C 1006.7 hPa SW 4.8 km/h 14.5 km/h 83% 0.8 mm
18:04 7.1 °C 4.4 °C 1006.3 hPa South 6.4 km/h 14.5 km/h 83% 0.8 mm
18:09 7.1 °C 4.4 °C 1006.3 hPa SSW 4.8 km/h 14.5 km/h 83% 0.8 mm
18:14 7.1 °C 4.4 °C 1006.3 hPa SSW 9.7 km/h 14.5 km/h 83% 0.8 mm
18:19 7.1 °C 4.4 °C 1006.3 hPa SSW 4.8 km/h 16.1 km/h 83% 0.8 mm
18:24 7.1 °C 4.4 °C 1006.3 hPa SSW 6.4 km/h 16.1 km/h 83% 0.8 mm
18:29 7.1 °C 4.4 °C 1006.3 hPa SSW 3.2 km/h 12.9 km/h 83% 0.8 mm
18:34 7.1 °C 4.4 °C 1006.3 hPa SSW 6.4 km/h 11.3 km/h 83% 0.8 mm
18:40 7.1 °C 4.4 °C 1006.3 hPa SSW 6.4 km/h 12.9 km/h 83% 0.8 mm
18:45 7.1 °C 4.4 °C 1006.3 hPa SSW 1.6 km/h 12.9 km/h 83% 0.8 mm
18:54 7.1 °C 4.4 °C 1006 hPa SSW 6.4 km/h 12.9 km/h 83% 0.8 mm
19:00 7.1 °C 4.4 °C 1006.3 hPa SSW 4.8 km/h 12.9 km/h 83% 0.8 mm
19:04 7.1 °C 4.6 °C 1006 hPa SSW 4.8 km/h 11.3 km/h 84% 0.8 mm
19:09 7 °C 4.5 °C 1006 hPa SW 3.2 km/h 11.3 km/h 84% 0.8 mm
19:14 7 °C 4.5 °C 1005.6 hPa SW 4.8 km/h 12.9 km/h 84% 0.8 mm
19:20 6.9 °C 4.4 °C 1005.6 hPa SW 4.8 km/h 12.9 km/h 84% 0.8 mm
19:24 6.9 °C 4.4 °C 1006 hPa SW 6.4 km/h 11.3 km/h 84% 0.8 mm
19:29 7 °C 4.5 °C 1006 hPa SSW 4.8 km/h 16.1 km/h 84% 0.8 mm
19:34 7 °C 4.5 °C 1006 hPa SW 3.2 km/h 16.1 km/h 84% 0.8 mm
19:39 6.9 °C 4.4 °C 1006 hPa SSW 4.8 km/h 12.9 km/h 84% 0.8 mm
19:45 6.9 °C 4.4 °C 1006 hPa SW 4.8 km/h 11.3 km/h 84% 0.8 mm
19:50 7 °C 4.5 °C 1006 hPa SW 6.4 km/h 12.9 km/h 84% 0.8 mm
19:59 7 °C 4.5 °C 1006 hPa SW 4.8 km/h 12.9 km/h 84% 0.8 mm
20:04 7 °C 4.5 °C 1006 hPa SW 9.7 km/h 16.1 km/h 84% 0.8 mm
20:09 7 °C 4.5 °C 1006 hPa SSW 4.8 km/h 16.1 km/h 84% 0.8 mm
20:15 7 °C 4.5 °C 1006 hPa SW 8 km/h 14.5 km/h 84% 0.8 mm
20:19 7 °C 4.3 °C 1006 hPa SW 8 km/h 19.3 km/h 83% 0.8 mm
20:24 7 °C 4.5 °C 1006 hPa SSW 8 km/h 19.3 km/h 84% 0.8 mm
20:30 7 °C 4.5 °C 1006 hPa SSW 8 km/h 16.1 km/h 84% 0.8 mm
20:34 7 °C 4.5 °C 1006 hPa SSW 8 km/h 16.1 km/h 84% 0.8 mm
20:40 7 °C 4.5 °C 1006 hPa SW 9.7 km/h 16.1 km/h 84% 0.8 mm
20:44 7 °C 4.5 °C 1006 hPa SW 8 km/h 16.1 km/h 84% 0.8 mm
20:50 6.9 °C 4.4 °C 1006 hPa SSW 4.8 km/h 14.5 km/h 84% 0.8 mm
20:59 6.9 °C 4.4 °C 1006 hPa SW 9.7 km/h 14.5 km/h 84% 0.8 mm
21:04 6.9 °C 4.4 °C 1006 hPa SSW 4.8 km/h 16.1 km/h 84% 0.8 mm
21:09 6.8 °C 4.3 °C 1006 hPa SSW 6.4 km/h 16.1 km/h 84% 0.8 mm
21:14 6.6 °C 4.1 °C 1006 hPa SSW 3.2 km/h 11.3 km/h 84% 0.8 mm
21:19 6.4 °C 3.9 °C 1006 hPa SSW 6.4 km/h 12.9 km/h 84% 0.8 mm
21:24 6.3 °C 4 °C 1006.3 hPa SSW 6.4 km/h 12.9 km/h 85% 0.8 mm
21:29 6.4 °C 4.1 °C 1006.3 hPa SW 3.2 km/h 12.9 km/h 85% 0.8 mm
21:34 6.4 °C 4.3 °C 1006.3 hPa SSW 3.2 km/h 11.3 km/h 86% 0.8 mm
21:39 6.6 °C 4.2 °C 1006 hPa SSW 8 km/h 14.5 km/h 85% 0.8 mm
21:44 6.6 °C 4.3 °C 1006 hPa SSW 6.4 km/h 14.5 km/h 85% 0.8 mm
21:50 6.5 °C 4.2 °C 1005.6 hPa SSW 8 km/h 12.9 km/h 85% 0.8 mm
22:00 6.2 °C 3.8 °C 1005.6 hPa SSW 8 km/h 12.9 km/h 85% 0.8 mm
22:05 5.9 °C 3.6 °C 1005.6 hPa SW 8 km/h 12.9 km/h 85% 0.8 mm
22:14 5.5 °C 3.3 °C 1005.6 hPa SSW 4.8 km/h 11.3 km/h 86% 0.8 mm
22:19 5.5 °C 3.5 °C 1005.6 hPa SSW 6.4 km/h 9.7 km/h 87% 0.8 mm
22:25 5.7 °C 3.7 °C 1005.6 hPa South 3.2 km/h 11.3 km/h 87% 0.8 mm
22:29 5.8 °C 3.9 °C 1005.6 hPa SW 1.6 km/h 11.3 km/h 88% 0.8 mm
22:35 5.9 °C 4.1 °C 1005.6 hPa SW 3.2 km/h 11.3 km/h 88% 0.8 mm
22:39 6.1 °C 4.2 °C 1005.6 hPa SSW 6.4 km/h 11.3 km/h 88% 0.8 mm
22:44 6.1 °C 4.2 °C 1005.6 hPa SSW 6.4 km/h 9.7 km/h 88% 0.8 mm
22:50 6.1 °C 4.1 °C 1005.6 hPa SW 3.2 km/h 11.3 km/h 87% 0.8 mm
23:00 6.2 °C 4.2 °C 1005.6 hPa SSW 4.8 km/h 12.9 km/h 87% 0.8 mm
23:09 6.3 °C 4.3 °C 1005.3 hPa SSW 8 km/h 14.5 km/h 87% 0.8 mm
23:14 6.4 °C 4.4 °C 1005.3 hPa SSW 3.2 km/h 14.5 km/h 87% 0.8 mm
23:20 6.4 °C 4.4 °C 1005.3 hPa SSW 3.2 km/h 11.3 km/h 87% 0.8 mm
23:29 6.5 °C 4.5 °C 1005.3 hPa SSW 9.7 km/h 17.7 km/h 87% 0.8 mm
23:34 6.6 °C 4.4 °C 1005.3 hPa SSW 9.7 km/h 17.7 km/h 86% 0.8 mm
23:39 6.6 °C 4.4 °C 1005.3 hPa SSW 8 km/h 16.1 km/h 86% 0.8 mm
23:45 6.6 °C 4.4 °C 1005 hPa SSW 8 km/h 12.9 km/h 86% 0.8 mm
23:55 6.6 °C 4.4 °C 1005 hPa SSW 6.4 km/h 14.5 km/h 86% 0.8 mm
Westford Weather
Compliments of Weather Underground

 
 
Current Radar Loop:

Copyright © WestfordWeather.net 2007-2014. All rights reserved.